sensor_id;sensor_type;location;lat;lon;timestamp;P1;durP1;ratioP1;P2;durP2;ratioP2
14013;SDS011;49110;52.584;13.408;2022-12-16T00:00:16;39.50;;;21.50;;
14013;SDS011;49110;52.584;13.408;2022-12-16T00:01:18;40.53;;;20.97;;
14013;SDS011;49110;52.584;13.408;2022-12-16T00:02:19;41.00;;;21.98;;
14013;SDS011;49110;52.584;13.408;2022-12-16T00:03:19;37.90;;;21.03;;
14013;SDS011;49110;52.584;13.408;2022-12-16T00:04:20;40.93;;;21.73;;
14013;SDS011;49110;52.584;13.408;2022-12-16T00:05:21;41.10;;;20.63;;
14013;SDS011;49110;52.584;13.408;2022-12-16T00:06:22;37.67;;;21.17;;
14013;SDS011;49110;52.584;13.408;2022-12-16T00:07:24;34.28;;;19.85;;
14013;SDS011;49110;52.584;13.408;2022-12-16T00:08:25;32.17;;;19.43;;
14013;SDS011;49110;52.584;13.408;2022-12-16T00:09:25;34.97;;;19.67;;
14013;SDS011;49110;52.584;13.408;2022-12-16T00:10:25;39.87;;;20.87;;
14013;SDS011;49110;52.584;13.408;2022-12-16T00:11:46;35.13;;;19.95;;
14013;SDS011;49110;52.584;13.408;2022-12-16T00:12:47;38.03;;;20.00;;
14013;SDS011;49110;52.584;13.408;2022-12-16T00:13:47;33.00;;;19.23;;
14013;SDS011;49110;52.584;13.408;2022-12-16T00:14:48;36.30;;;19.20;;
14013;SDS011;49110;52.584;13.408;2022-12-16T00:15:48;33.80;;;19.50;;
14013;SDS011;49110;52.584;13.408;2022-12-16T00:16:48;32.00;;;18.43;;
14013;SDS011;49110;52.584;13.408;2022-12-16T00:17:49;34.77;;;19.10;;
14013;SDS011;49110;52.584;13.408;2022-12-16T00:18:49;32.80;;;18.73;;
14013;SDS011;49110;52.584;13.408;2022-12-16T00:19:50;35.03;;;18.13;;
14013;SDS011;49110;52.584;13.408;2022-12-16T00:20:51;33.57;;;18.63;;
14013;SDS011;49110;52.584;13.408;2022-12-16T00:21:54;31.52;;;19.08;;
14013;SDS011;49110;52.584;13.408;2022-12-16T00:22:54;32.60;;;17.47;;
14013;SDS011;49110;52.584;13.408;2022-12-16T00:23:55;31.27;;;18.80;;
14013;SDS011;49110;52.584;13.408;2022-12-16T00:24:57;36.10;;;18.67;;
14013;SDS011;49110;52.584;13.408;2022-12-16T00:25:57;31.00;;;18.07;;
14013;SDS011;49110;52.584;13.408;2022-12-16T00:26:59;32.53;;;17.83;;
14013;SDS011;49110;52.584;13.408;2022-12-16T00:27:59;31.13;;;18.00;;
14013;SDS011;49110;52.584;13.408;2022-12-16T00:29:00;30.53;;;17.83;;
14013;SDS011;49110;52.584;13.408;2022-12-16T00:30:00;32.03;;;17.93;;
14013;SDS011;49110;52.584;13.408;2022-12-16T00:31:01;31.90;;;17.70;;
14013;SDS011;49110;52.584;13.408;2022-12-16T00:32:01;34.07;;;17.57;;
14013;SDS011;49110;52.584;13.408;2022-12-16T00:33:02;32.63;;;18.30;;
14013;SDS011;49110;52.584;13.408;2022-12-16T00:34:03;31.20;;;18.02;;
14013;SDS011;49110;52.584;13.408;2022-12-16T00:35:04;33.77;;;17.20;;
14013;SDS011;49110;52.584;13.408;2022-12-16T00:36:05;29.50;;;16.97;;
14013;SDS011;49110;52.584;13.408;2022-12-16T00:37:06;32.42;;;18.10;;
14013;SDS011;49110;52.584;13.408;2022-12-16T00:38:07;34.83;;;18.10;;
14013;SDS011;49110;52.584;13.408;2022-12-16T00:39:08;34.28;;;19.15;;
14013;SDS011;49110;52.584;13.408;2022-12-16T00:40:09;29.55;;;17.15;;
14013;SDS011;49110;52.584;13.408;2022-12-16T00:41:10;34.53;;;18.37;;
14013;SDS011;49110;52.584;13.408;2022-12-16T00:42:10;33.73;;;18.10;;
14013;SDS011;49110;52.584;13.408;2022-12-16T00:43:11;36.13;;;18.07;;
14013;SDS011;49110;52.584;13.408;2022-12-16T00:44:12;34.17;;;18.23;;
14013;SDS011;49110;52.584;13.408;2022-12-16T00:45:12;29.20;;;18.13;;
14013;SDS011;49110;52.584;13.408;2022-12-16T00:46:13;34.17;;;18.63;;
14013;SDS011;49110;52.584;13.408;2022-12-16T00:47:13;31.30;;;17.90;;
14013;SDS011;49110;52.584;13.408;2022-12-16T00:48:18;32.10;;;17.75;;
14013;SDS011;49110;52.584;13.408;2022-12-16T00:49:26;32.97;;;17.52;;
14013;SDS011;49110;52.584;13.408;2022-12-16T00:50:30;31.80;;;17.92;;
14013;SDS011;49110;52.584;13.408;2022-12-16T00:51:30;35.83;;;17.97;;
14013;SDS011;49110;52.584;13.408;2022-12-16T00:52:31;34.63;;;17.83;;
14013;SDS011;49110;52.584;13.408;2022-12-16T00:53:31;29.17;;;17.27;;
14013;SDS011;49110;52.584;13.408;2022-12-16T00:54:32;26.97;;;16.40;;
14013;SDS011;49110;52.584;13.408;2022-12-16T00:55:32;37.07;;;19.00;;
14013;SDS011;49110;52.584;13.408;2022-12-16T00:56:34;31.42;;;18.25;;
14013;SDS011;49110;52.584;13.408;2022-12-16T00:57:34;30.43;;;16.93;;
14013;SDS011;49110;52.584;13.408;2022-12-16T00:58:35;28.03;;;16.10;;
14013;SDS011;49110;52.584;13.408;2022-12-16T00:59:36;28.95;;;16.48;;
14013;SDS011;49110;52.584;13.408;2022-12-16T01:00:37;31.93;;;17.97;;
14013;SDS011;49110;52.584;13.408;2022-12-16T01:01:37;30.17;;;17.13;;
14013;SDS011;49110;52.584;13.408;2022-12-16T01:02:39;29.77;;;17.10;;
14013;SDS011;49110;52.584;13.408;2022-12-16T01:03:40;35.47;;;18.17;;
14013;SDS011;49110;52.584;13.408;2022-12-16T01:04:40;33.70;;;18.37;;
14013;SDS011;49110;52.584;13.408;2022-12-16T01:05:41;34.47;;;18.97;;
14013;SDS011;49110;52.584;13.408;2022-12-16T01:06:41;41.57;;;18.47;;
14013;SDS011;49110;52.584;13.408;2022-12-16T01:07:42;33.80;;;18.07;;
14013;SDS011;49110;52.584;13.408;2022-12-16T01:08:43;35.10;;;19.63;;
14013;SDS011;49110;52.584;13.408;2022-12-16T01:09:49;33.03;;;18.30;;
14013;SDS011;49110;52.584;13.408;2022-12-16T01:10:50;33.70;;;18.87;;
14013;SDS011;49110;52.584;13.408;2022-12-16T01:11:52;29.95;;;18.02;;
14013;SDS011;49110;52.584;13.408;2022-12-16T01:12:52;33.13;;;17.60;;
14013;SDS011;49110;52.584;13.408;2022-12-16T01:13:53;34.67;;;18.50;;
14013;SDS011;49110;52.584;13.408;2022-12-16T01:14:54;31.70;;;18.37;;
14013;SDS011;49110;52.584;13.408;2022-12-16T01:15:57;33.27;;;18.40;;
14013;SDS011;49110;52.584;13.408;2022-12-16T01:16:59;35.65;;;18.10;;
14013;SDS011;49110;52.584;13.408;2022-12-16T01:18:00;34.28;;;17.98;;
14013;SDS011;49110;52.584;13.408;2022-12-16T01:19:01;33.97;;;18.53;;
14013;SDS011;49110;52.584;13.408;2022-12-16T01:20:01;34.03;;;19.77;;
14013;SDS011;49110;52.584;13.408;2022-12-16T01:21:03;32.67;;;18.13;;
14013;SDS011;49110;52.584;13.408;2022-12-16T01:22:05;36.60;;;18.70;;
14013;SDS011;49110;52.584;13.408;2022-12-16T01:23:05;35.40;;;18.20;;
14013;SDS011;49110;52.584;13.408;2022-12-16T01:24:06;33.60;;;17.90;;
14013;SDS011;49110;52.584;13.408;2022-12-16T01:25:10;36.90;;;19.80;;
14013;SDS011;49110;52.584;13.408;2022-12-16T01:26:14;32.53;;;18.40;;
14013;SDS011;49110;52.584;13.408;2022-12-16T01:27:15;33.08;;;18.15;;
14013;SDS011;49110;52.584;13.408;2022-12-16T01:28:16;31.90;;;17.73;;
14013;SDS011;49110;52.584;13.408;2022-12-16T01:29:16;36.77;;;19.50;;
14013;SDS011;49110;52.584;13.408;2022-12-16T01:30:17;33.75;;;17.65;;
14013;SDS011;49110;52.584;13.408;2022-12-16T01:31:25;33.55;;;16.58;;
14013;SDS011;49110;52.584;13.408;2022-12-16T01:32:25;37.88;;;19.02;;
14013;SDS011;49110;52.584;13.408;2022-12-16T01:33:27;33.80;;;19.27;;
14013;SDS011;49110;52.584;13.408;2022-12-16T01:34:29;33.25;;;19.00;;
14013;SDS011;49110;52.584;13.408;2022-12-16T01:35:29;30.80;;;17.87;;
14013;SDS011;49110;52.584;13.408;2022-12-16T01:36:29;39.97;;;19.53;;
14013;SDS011;49110;52.584;13.408;2022-12-16T01:37:30;32.73;;;18.33;;
14013;SDS011;49110;52.584;13.408;2022-12-16T01:38:31;36.07;;;19.27;;
14013;SDS011;49110;52.584;13.408;2022-12-16T01:39:32;36.45;;;18.85;;
14013;SDS011;49110;52.584;13.408;2022-12-16T01:40:32;34.17;;;18.70;;
14013;SDS011;49110;52.584;13.408;2022-12-16T01:41:33;31.77;;;17.35;;
14013;SDS011;49110;52.584;13.408;2022-12-16T01:42:34;29.80;;;17.07;;
14013;SDS011;49110;52.584;13.408;2022-12-16T01:43:38;33.77;;;18.47;;
14013;SDS011;49110;52.584;13.408;2022-12-16T01:44:41;32.95;;;18.50;;
14013;SDS011;49110;52.584;13.408;2022-12-16T01:45:43;30.98;;;18.40;;
14013;SDS011;49110;52.584;13.408;2022-12-16T01:47:04;30.23;;;17.43;;
14013;SDS011;49110;52.584;13.408;2022-12-16T01:50:01;32.85;;;19.23;;
14013;SDS011;49110;52.584;13.408;2022-12-16T01:51:42;35.20;;;18.45;;
14013;SDS011;49110;52.584;13.408;2022-12-16T01:52:39;31.58;;;18.58;;
14013;SDS011;49110;52.584;13.408;2022-12-16T01:53:43;36.60;;;20.00;;
14013;SDS011;49110;52.584;13.408;2022-12-16T01:55:07;42.53;;;21.70;;
14013;SDS011;49110;52.584;13.408;2022-12-16T01:56:17;38.88;;;21.25;;
14013;SDS011;49110;52.584;13.408;2022-12-16T01:57:25;37.95;;;21.45;;
14013;SDS011;49110;52.584;13.408;2022-12-16T01:58:32;41.92;;;21.80;;
14013;SDS011;49110;52.584;13.408;2022-12-16T01:59:36;38.88;;;21.10;;
14013;SDS011;49110;52.584;13.408;2022-12-16T02:00:40;41.10;;;20.60;;
14013;SDS011;49110;52.584;13.408;2022-12-16T02:01:41;42.33;;;21.10;;
14013;SDS011;49110;52.584;13.408;2022-12-16T02:02:42;37.47;;;19.93;;
14013;SDS011;49110;52.584;13.408;2022-12-16T02:03:44;40.03;;;20.20;;
14013;SDS011;49110;52.584;13.408;2022-12-16T02:04:46;39.80;;;22.27;;
14013;SDS011;49110;52.584;13.408;2022-12-16T02:06:06;43.22;;;19.85;;
14013;SDS011;49110;52.584;13.408;2022-12-16T02:07:06;39.60;;;19.37;;
14013;SDS011;49110;52.584;13.408;2022-12-16T02:08:17;31.90;;;18.87;;
14013;SDS011;49110;52.584;13.408;2022-12-16T02:09:18;31.25;;;18.80;;
14013;SDS011;49110;52.584;13.408;2022-12-16T02:10:19;33.80;;;18.85;;
14013;SDS011;49110;52.584;13.408;2022-12-16T02:12:12;38.45;;;19.15;;
14013;SDS011;49110;52.584;13.408;2022-12-16T02:14:49;31.08;;;17.23;;
14013;SDS011;49110;52.584;13.408;2022-12-16T02:17:09;31.10;;;17.45;;
14013;SDS011;49110;52.584;13.408;2022-12-16T02:18:36;31.95;;;18.15;;
14013;SDS011;49110;52.584;13.408;2022-12-16T02:21:18;35.72;;;18.70;;
14013;SDS011;49110;52.584;13.408;2022-12-16T02:27:29;28.63;;;17.23;;
14013;SDS011;49110;52.584;13.408;2022-12-16T02:30:04;28.73;;;17.15;;
14013;SDS011;49110;52.584;13.408;2022-12-16T02:32:44;35.25;;;17.05;;
14013;SDS011;49110;52.584;13.408;2022-12-16T02:35:32;31.58;;;18.08;;
14013;SDS011;49110;52.584;13.408;2022-12-16T02:36:49;28.55;;;17.20;;
14013;SDS011;49110;52.584;13.408;2022-12-16T02:38:07;28.25;;;16.42;;
14013;SDS011;49110;52.584;13.408;2022-12-16T02:40:22;31.05;;;17.20;;
14013;SDS011;49110;52.584;13.408;2022-12-16T02:41:46;31.60;;;17.15;;
14013;SDS011;49110;52.584;13.408;2022-12-16T02:42:54;30.98;;;17.05;;
14013;SDS011;49110;52.584;13.408;2022-12-16T02:44:00;32.45;;;17.35;;
14013;SDS011;49110;52.584;13.408;2022-12-16T02:45:24;32.50;;;18.52;;
14013;SDS011;49110;52.584;13.408;2022-12-16T02:46:28;32.33;;;17.17;;
14013;SDS011;49110;52.584;13.408;2022-12-16T02:47:32;28.95;;;17.48;;
14013;SDS011;49110;52.584;13.408;2022-12-16T02:48:32;30.63;;;16.87;;
14013;SDS011;49110;52.584;13.408;2022-12-16T02:50:43;30.23;;;16.97;;
14013;SDS011;49110;52.584;13.408;2022-12-16T02:51:48;29.67;;;17.05;;
14013;SDS011;49110;52.584;13.408;2022-12-16T02:52:49;28.87;;;16.03;;
14013;SDS011;49110;52.584;13.408;2022-12-16T02:53:51;32.10;;;17.20;;
14013;SDS011;49110;52.584;13.408;2022-12-16T02:54:55;32.58;;;17.65;;
14013;SDS011;49110;52.584;13.408;2022-12-16T02:56:14;30.65;;;17.10;;
14013;SDS011;49110;52.584;13.408;2022-12-16T02:57:27;29.23;;;16.52;;
14013;SDS011;49110;52.584;13.408;2022-12-16T02:58:51;32.08;;;17.10;;
14013;SDS011;49110;52.584;13.408;2022-12-16T03:00:10;28.58;;;17.48;;
14013;SDS011;49110;52.584;13.408;2022-12-16T03:01:20;30.02;;;17.23;;
14013;SDS011;49110;52.584;13.408;2022-12-16T03:03:43;29.90;;;16.65;;
14013;SDS011;49110;52.584;13.408;2022-12-16T03:04:53;35.20;;;17.52;;
14013;SDS011;49110;52.584;13.408;2022-12-16T03:06:17;31.85;;;17.55;;
14013;SDS011;49110;52.584;13.408;2022-12-16T03:07:21;34.00;;;17.45;;
14013;SDS011;49110;52.584;13.408;2022-12-16T03:08:26;30.98;;;16.73;;
14013;SDS011;49110;52.584;13.408;2022-12-16T03:09:33;34.72;;;18.75;;
14013;SDS011;49110;52.584;13.408;2022-12-16T03:10:37;30.25;;;17.02;;
14013;SDS011;49110;52.584;13.408;2022-12-16T03:11:44;30.88;;;17.00;;
14013;SDS011;49110;52.584;13.408;2022-12-16T03:12:46;31.27;;;16.63;;
14013;SDS011;49110;52.584;13.408;2022-12-16T03:13:48;31.73;;;17.37;;
14013;SDS011;49110;52.584;13.408;2022-12-16T03:14:52;30.17;;;17.25;;
14013;SDS011;49110;52.584;13.408;2022-12-16T03:15:53;32.92;;;17.70;;
14013;SDS011;49110;52.584;13.408;2022-12-16T03:16:57;31.77;;;18.08;;
14013;SDS011;49110;52.584;13.408;2022-12-16T03:17:58;29.27;;;17.08;;
14013;SDS011;49110;52.584;13.408;2022-12-16T03:19:02;34.13;;;17.27;;
14013;SDS011;49110;52.584;13.408;2022-12-16T03:21:13;31.55;;;17.17;;
14013;SDS011;49110;52.584;13.408;2022-12-16T03:22:21;31.98;;;17.90;;
14013;SDS011;49110;52.584;13.408;2022-12-16T03:23:28;33.75;;;17.58;;
14013;SDS011;49110;52.584;13.408;2022-12-16T03:24:32;34.95;;;17.05;;
14013;SDS011;49110;52.584;13.408;2022-12-16T03:25:33;30.67;;;17.55;;
14013;SDS011;49110;52.584;13.408;2022-12-16T03:26:50;30.25;;;16.73;;
14013;SDS011;49110;52.584;13.408;2022-12-16T03:28:46;30.10;;;16.35;;
14013;SDS011;49110;52.584;13.408;2022-12-16T03:33:00;27.85;;;16.55;;
14013;SDS011;49110;52.584;13.408;2022-12-16T03:34:07;31.70;;;16.88;;
14013;SDS011;49110;52.584;13.408;2022-12-16T03:35:25;32.28;;;17.42;;
14013;SDS011;49110;52.584;13.408;2022-12-16T03:36:33;32.15;;;17.45;;
14013;SDS011;49110;52.584;13.408;2022-12-16T03:37:36;29.27;;;16.92;;
14013;SDS011;49110;52.584;13.408;2022-12-16T03:38:38;32.70;;;16.33;;
14013;SDS011;49110;52.584;13.408;2022-12-16T03:39:41;30.30;;;16.88;;
14013;SDS011;49110;52.584;13.408;2022-12-16T03:40:46;32.10;;;17.25;;
14013;SDS011;49110;52.584;13.408;2022-12-16T03:41:50;34.70;;;16.50;;
14013;SDS011;49110;52.584;13.408;2022-12-16T03:42:53;34.03;;;17.05;;
14013;SDS011;49110;52.584;13.408;2022-12-16T03:43:54;29.80;;;17.30;;
14013;SDS011;49110;52.584;13.408;2022-12-16T03:44:55;27.53;;;16.17;;
14013;SDS011;49110;52.584;13.408;2022-12-16T03:45:57;35.30;;;17.47;;
14013;SDS011;49110;52.584;13.408;2022-12-16T03:47:01;30.73;;;17.25;;
14013;SDS011;49110;52.584;13.408;2022-12-16T03:48:02;29.77;;;16.60;;
14013;SDS011;49110;52.584;13.408;2022-12-16T03:49:03;34.17;;;16.77;;
14013;SDS011;49110;52.584;13.408;2022-12-16T03:50:03;29.20;;;16.57;;
14013;SDS011;49110;52.584;13.408;2022-12-16T03:51:04;34.37;;;17.83;;
14013;SDS011;49110;52.584;13.408;2022-12-16T03:52:04;30.87;;;17.87;;
14013;SDS011;49110;52.584;13.408;2022-12-16T03:53:05;30.70;;;17.27;;
14013;SDS011;49110;52.584;13.408;2022-12-16T03:54:07;28.10;;;17.00;;
14013;SDS011;49110;52.584;13.408;2022-12-16T03:55:07;32.13;;;17.20;;
14013;SDS011;49110;52.584;13.408;2022-12-16T03:56:08;32.43;;;16.60;;
14013;SDS011;49110;52.584;13.408;2022-12-16T03:57:09;32.00;;;16.47;;
14013;SDS011;49110;52.584;13.408;2022-12-16T03:58:09;30.83;;;16.97;;
14013;SDS011;49110;52.584;13.408;2022-12-16T03:59:10;35.17;;;18.67;;
14013;SDS011;49110;52.584;13.408;2022-12-16T04:00:10;32.33;;;16.73;;
14013;SDS011;49110;52.584;13.408;2022-12-16T04:01:11;33.97;;;19.00;;
14013;SDS011;49110;52.584;13.408;2022-12-16T04:02:12;33.03;;;17.53;;
14013;SDS011;49110;52.584;13.408;2022-12-16T04:03:13;31.80;;;18.33;;
14013;SDS011;49110;52.584;13.408;2022-12-16T04:04:13;34.97;;;17.33;;
14013;SDS011;49110;52.584;13.408;2022-12-16T04:05:14;33.63;;;17.40;;
14013;SDS011;49110;52.584;13.408;2022-12-16T04:06:14;32.40;;;17.60;;
14013;SDS011;49110;52.584;13.408;2022-12-16T04:07:17;30.40;;;16.75;;
14013;SDS011;49110;52.584;13.408;2022-12-16T04:08:21;31.50;;;17.60;;
14013;SDS011;49110;52.584;13.408;2022-12-16T04:09:21;31.07;;;16.87;;
14013;SDS011;49110;52.584;13.408;2022-12-16T04:10:22;33.33;;;17.87;;
14013;SDS011;49110;52.584;13.408;2022-12-16T04:11:42;31.08;;;18.45;;
14013;SDS011;49110;52.584;13.408;2022-12-16T04:13:01;30.20;;;16.80;;
14013;SDS011;49110;52.584;13.408;2022-12-16T04:14:20;31.00;;;16.52;;
14013;SDS011;49110;52.584;13.408;2022-12-16T04:15:39;31.63;;;16.83;;
14013;SDS011;49110;52.584;13.408;2022-12-16T04:16:58;28.58;;;16.13;;
14013;SDS011;49110;52.584;13.408;2022-12-16T04:18:17;28.35;;;15.82;;
14013;SDS011;49110;52.584;13.408;2022-12-16T04:19:37;33.10;;;17.67;;
14013;SDS011;49110;52.584;13.408;2022-12-16T04:20:57;29.30;;;16.15;;
14013;SDS011;49110;52.584;13.408;2022-12-16T04:22:27;26.60;;;15.63;;
14013;SDS011;49110;52.584;13.408;2022-12-16T04:23:50;27.73;;;15.68;;
14013;SDS011;49110;52.584;13.408;2022-12-16T04:25:14;30.20;;;17.45;;
14013;SDS011;49110;52.584;13.408;2022-12-16T04:26:17;26.27;;;15.18;;
14013;SDS011;49110;52.584;13.408;2022-12-16T04:27:18;28.53;;;16.27;;
14013;SDS011;49110;52.584;13.408;2022-12-16T04:28:26;30.00;;;16.83;;
14013;SDS011;49110;52.584;13.408;2022-12-16T04:29:26;31.53;;;16.50;;
14013;SDS011;49110;52.584;13.408;2022-12-16T04:30:27;29.53;;;16.53;;
14013;SDS011;49110;52.584;13.408;2022-12-16T04:31:33;31.45;;;17.13;;
14013;SDS011;49110;52.584;13.408;2022-12-16T04:32:34;27.13;;;16.10;;
14013;SDS011;49110;52.584;13.408;2022-12-16T04:33:53;27.23;;;16.33;;
14013;SDS011;49110;52.584;13.408;2022-12-16T04:35:12;31.15;;;15.95;;
14013;SDS011;49110;52.584;13.408;2022-12-16T04:36:31;32.88;;;17.67;;
14013;SDS011;49110;52.584;13.408;2022-12-16T04:37:50;33.15;;;17.35;;
14013;SDS011;49110;52.584;13.408;2022-12-16T04:39:09;30.55;;;16.92;;
14013;SDS011;49110;52.584;13.408;2022-12-16T04:40:28;26.55;;;15.85;;
14013;SDS011;49110;52.584;13.408;2022-12-16T04:41:50;30.17;;;16.70;;
14013;SDS011;49110;52.584;13.408;2022-12-16T04:43:13;31.15;;;16.58;;
14013;SDS011;49110;52.584;13.408;2022-12-16T04:44:32;33.03;;;15.55;;
14013;SDS011;49110;52.584;13.408;2022-12-16T04:45:51;27.77;;;15.48;;
14013;SDS011;49110;52.584;13.408;2022-12-16T04:47:10;28.02;;;16.33;;
14013;SDS011;49110;52.584;13.408;2022-12-16T04:48:29;24.27;;;15.32;;
14013;SDS011;49110;52.584;13.408;2022-12-16T04:49:48;30.35;;;15.85;;
14013;SDS011;49110;52.584;13.408;2022-12-16T04:51:07;31.00;;;15.50;;
14013;SDS011;49110;52.584;13.408;2022-12-16T04:52:26;30.13;;;15.23;;
14013;SDS011;49110;52.584;13.408;2022-12-16T04:53:45;29.80;;;15.63;;
14013;SDS011;49110;52.584;13.408;2022-12-16T04:55:04;29.85;;;15.55;;
14013;SDS011;49110;52.584;13.408;2022-12-16T04:56:23;25.90;;;14.65;;
14013;SDS011;49110;52.584;13.408;2022-12-16T04:57:52;26.30;;;15.65;;
14013;SDS011;49110;52.584;13.408;2022-12-16T04:59:12;29.05;;;15.40;;
14013;SDS011;49110;52.584;13.408;2022-12-16T05:00:31;26.00;;;15.45;;
14013;SDS011;49110;52.584;13.408;2022-12-16T05:01:50;30.05;;;15.55;;
14013;SDS011;49110;52.584;13.408;2022-12-16T05:03:09;27.38;;;16.23;;
14013;SDS011;49110;52.584;13.408;2022-12-16T05:04:28;29.73;;;16.55;;
14013;SDS011;49110;52.584;13.408;2022-12-16T05:05:47;28.10;;;15.35;;
14013;SDS011;49110;52.584;13.408;2022-12-16T05:07:06;26.02;;;15.65;;
14013;SDS011;49110;52.584;13.408;2022-12-16T05:08:25;25.80;;;15.45;;
14013;SDS011;49110;52.584;13.408;2022-12-16T05:09:44;28.85;;;15.07;;
14013;SDS011;49110;52.584;13.408;2022-12-16T05:11:03;27.67;;;16.13;;
14013;SDS011;49110;52.584;13.408;2022-12-16T05:12:23;28.65;;;15.63;;
14013;SDS011;49110;52.584;13.408;2022-12-16T05:13:41;28.77;;;15.60;;
14013;SDS011;49110;52.584;13.408;2022-12-16T05:15:01;28.92;;;15.20;;
14013;SDS011;49110;52.584;13.408;2022-12-16T05:16:19;29.30;;;15.60;;
14013;SDS011;49110;52.584;13.408;2022-12-16T05:17:38;26.40;;;14.63;;
14013;SDS011;49110;52.584;13.408;2022-12-16T05:18:57;25.20;;;14.90;;
14013;SDS011;49110;52.584;13.408;2022-12-16T05:20:16;23.73;;;14.52;;
14013;SDS011;49110;52.584;13.408;2022-12-16T05:21:35;25.33;;;15.38;;
14013;SDS011;49110;52.584;13.408;2022-12-16T05:22:55;26.90;;;15.80;;
14013;SDS011;49110;52.584;13.408;2022-12-16T05:24:14;27.20;;;14.38;;
14013;SDS011;49110;52.584;13.408;2022-12-16T05:25:33;25.20;;;14.48;;
14013;SDS011;49110;52.584;13.408;2022-12-16T05:26:52;29.58;;;15.18;;
14013;SDS011;49110;52.584;13.408;2022-12-16T05:28:11;34.50;;;15.90;;
14013;SDS011;49110;52.584;13.408;2022-12-16T05:29:30;28.20;;;15.23;;
14013;SDS011;49110;52.584;13.408;2022-12-16T05:30:49;30.00;;;17.77;;
14013;SDS011;49110;52.584;13.408;2022-12-16T05:32:19;29.50;;;16.05;;
14013;SDS011;49110;52.584;13.408;2022-12-16T05:33:38;28.25;;;16.50;;
14013;SDS011;49110;52.584;13.408;2022-12-16T05:34:58;30.95;;;16.92;;
14013;SDS011;49110;52.584;13.408;2022-12-16T05:36:37;26.10;;;16.02;;
14013;SDS011;49110;52.584;13.408;2022-12-16T05:37:56;28.75;;;15.68;;
14013;SDS011;49110;52.584;13.408;2022-12-16T05:39:15;26.83;;;15.93;;
14013;SDS011;49110;52.584;13.408;2022-12-16T05:40:34;27.10;;;16.60;;
14013;SDS011;49110;52.584;13.408;2022-12-16T05:41:53;27.55;;;16.25;;
14013;SDS011;49110;52.584;13.408;2022-12-16T05:43:13;30.90;;;16.17;;
14013;SDS011;49110;52.584;13.408;2022-12-16T05:44:32;29.75;;;15.65;;
14013;SDS011;49110;52.584;13.408;2022-12-16T05:45:51;30.67;;;16.52;;
14013;SDS011;49110;52.584;13.408;2022-12-16T05:47:10;29.15;;;16.30;;
14013;SDS011;49110;52.584;13.408;2022-12-16T05:48:29;25.55;;;15.50;;
14013;SDS011;49110;52.584;13.408;2022-12-16T05:49:48;28.17;;;15.43;;
14013;SDS011;49110;52.584;13.408;2022-12-16T05:51:07;25.25;;;14.05;;
14013;SDS011;49110;52.584;13.408;2022-12-16T05:52:26;29.10;;;15.75;;
14013;SDS011;49110;52.584;13.408;2022-12-16T05:53:45;25.83;;;14.88;;
14013;SDS011;49110;52.584;13.408;2022-12-16T05:55:04;25.67;;;14.98;;
14013;SDS011;49110;52.584;13.408;2022-12-16T05:56:24;25.30;;;15.45;;
14013;SDS011;49110;52.584;13.408;2022-12-16T05:57:43;27.98;;;15.10;;
14013;SDS011;49110;52.584;13.408;2022-12-16T05:59:02;35.85;;;17.58;;
14013;SDS011;49110;52.584;13.408;2022-12-16T06:00:21;27.48;;;15.07;;
14013;SDS011;49110;52.584;13.408;2022-12-16T06:01:40;26.73;;;14.88;;
14013;SDS011;49110;52.584;13.408;2022-12-16T06:02:59;30.17;;;16.02;;
14013;SDS011;49110;52.584;13.408;2022-12-16T06:04:18;28.35;;;16.30;;
14013;SDS011;49110;52.584;13.408;2022-12-16T06:05:37;29.35;;;15.23;;
14013;SDS011;49110;52.584;13.408;2022-12-16T06:06:56;29.95;;;15.75;;
14013;SDS011;49110;52.584;13.408;2022-12-16T06:08:15;36.75;;;16.30;;
14013;SDS011;49110;52.584;13.408;2022-12-16T06:09:34;26.98;;;14.32;;
14013;SDS011;49110;52.584;13.408;2022-12-16T06:10:53;29.17;;;15.85;;
14013;SDS011;49110;52.584;13.408;2022-12-16T06:12:12;34.03;;;17.02;;
14013;SDS011;49110;52.584;13.408;2022-12-16T06:13:31;28.98;;;16.55;;
14013;SDS011;49110;52.584;13.408;2022-12-16T06:14:51;30.48;;;16.55;;
14013;SDS011;49110;52.584;13.408;2022-12-16T06:16:10;32.13;;;17.27;;
14013;SDS011;49110;52.584;13.408;2022-12-16T06:17:29;29.77;;;16.55;;
14013;SDS011;49110;52.584;13.408;2022-12-16T06:18:48;25.70;;;16.08;;
14013;SDS011;49110;52.584;13.408;2022-12-16T06:20:07;31.80;;;15.65;;
14013;SDS011;49110;52.584;13.408;2022-12-16T06:21:26;27.02;;;15.95;;
14013;SDS011;49110;52.584;13.408;2022-12-16T06:22:51;27.52;;;15.15;;
14013;SDS011;49110;52.584;13.408;2022-12-16T06:24:11;31.75;;;16.38;;
14013;SDS011;49110;52.584;13.408;2022-12-16T06:25:30;26.75;;;16.38;;
14013;SDS011;49110;52.584;13.408;2022-12-16T06:26:50;31.75;;;16.60;;
14013;SDS011;49110;52.584;13.408;2022-12-16T06:28:09;29.02;;;16.55;;
14013;SDS011;49110;52.584;13.408;2022-12-16T06:29:28;31.48;;;16.80;;
14013;SDS011;49110;52.584;13.408;2022-12-16T06:30:47;25.83;;;16.08;;
14013;SDS011;49110;52.584;13.408;2022-12-16T06:32:06;28.90;;;16.40;;
14013;SDS011;49110;52.584;13.408;2022-12-16T06:33:25;29.83;;;17.48;;
14013;SDS011;49110;52.584;13.408;2022-12-16T06:34:44;31.75;;;16.90;;
14013;SDS011;49110;52.584;13.408;2022-12-16T06:36:03;39.83;;;17.75;;
14013;SDS011;49110;52.584;13.408;2022-12-16T06:37:23;32.33;;;16.85;;
14013;SDS011;49110;52.584;13.408;2022-12-16T06:38:42;29.98;;;16.77;;
14013;SDS011;49110;52.584;13.408;2022-12-16T06:40:01;33.50;;;17.45;;
14013;SDS011;49110;52.584;13.408;2022-12-16T06:41:20;28.98;;;16.45;;
14013;SDS011;49110;52.584;13.408;2022-12-16T06:42:39;29.38;;;16.10;;
14013;SDS011;49110;52.584;13.408;2022-12-16T06:43:59;32.15;;;17.75;;
14013;SDS011;49110;52.584;13.408;2022-12-16T06:45:18;32.17;;;16.92;;
14013;SDS011;49110;52.584;13.408;2022-12-16T06:46:37;26.55;;;16.02;;
14013;SDS011;49110;52.584;13.408;2022-12-16T06:47:56;32.20;;;17.15;;
14013;SDS011;49110;52.584;13.408;2022-12-16T06:49:15;30.48;;;17.77;;
14013;SDS011;49110;52.584;13.408;2022-12-16T06:50:37;31.10;;;17.23;;
14013;SDS011;49110;52.584;13.408;2022-12-16T06:51:56;32.22;;;16.85;;
14013;SDS011;49110;52.584;13.408;2022-12-16T06:53:15;32.97;;;17.52;;
14013;SDS011;49110;52.584;13.408;2022-12-16T06:54:34;30.73;;;17.08;;
14013;SDS011;49110;52.584;13.408;2022-12-16T06:55:53;28.90;;;17.38;;
14013;SDS011;49110;52.584;13.408;2022-12-16T06:57:12;31.70;;;16.63;;
14013;SDS011;49110;52.584;13.408;2022-12-16T06:58:31;30.70;;;16.95;;
14013;SDS011;49110;52.584;13.408;2022-12-16T06:59:50;32.28;;;18.02;;
14013;SDS011;49110;52.584;13.408;2022-12-16T07:01:10;29.05;;;17.75;;
14013;SDS011;49110;52.584;13.408;2022-12-16T07:02:29;31.35;;;17.52;;
14013;SDS011;49110;52.584;13.408;2022-12-16T07:03:48;34.83;;;17.20;;
14013;SDS011;49110;52.584;13.408;2022-12-16T07:05:07;33.95;;;16.83;;
14013;SDS011;49110;52.584;13.408;2022-12-16T07:06:26;33.42;;;18.50;;